KIRKWALL AIRPORT current weather conditions

sailwx.info

Wind from 100 at 18 knots

Air temperature 5.0° C
Visibility: greater than 5.4 NM
Dewpoint -1.0° C

Last reported at 2016-Feb-12 06:50 UTC.
Time now 2016-Feb-12 07:52 UTC

Location: N 58°57' W 002°54'.
View on Google Maps.

See reports from other nearby stations

  
Tides and Currents Weather Stations Pressure Air Temp Water Temp Dewpoint Dewpoint Depression Visibility Wind Speed Wind Dir Waves Ship Positions
date/time (UTC)wind fromknots sea level pressurealtimeterstation pressurevisibilityair tempwater tempwave heightnotes
2016-Feb-12 06:50 100 18 5.4 5.0
2016-Feb-12 06:20 090 18 5.4 5.0
2016-Feb-12 05:50 080 19 5.4 5.0
2016-Feb-12 05:20 090 20 5.4 5.0
2016-Feb-12 04:50 080 19 5.4 5.0
2016-Feb-12 04:20 080 20 5.4 5.0
2016-Feb-12 03:50 080 23 5.4 5.0
2016-Feb-12 03:20 080 24 5.4 5.0
2016-Feb-12 02:50 080 24 gusting 35 5.4 5.0
2016-Feb-12 02:20 080 26 5.4 5.0
2016-Feb-12 01:50 080 25 5.4 5.0
2016-Feb-12 01:20 080 26 5.4 5.0
2016-Feb-12 00:50 070 27 5.4 5.0
2016-Feb-12 00:20 080 23 gusting 34 5.4 5.0
2016-Feb-11 23:50 080 24 5.4 5.0
2016-Feb-11 23:20 070 22 5.4 5.0
2016-Feb-11 22:50 070 24 5.4 5.0
2016-Feb-11 22:20 070 20 5.4 5.0
2016-Feb-11 21:50 060 20 5.4 5.0
2016-Feb-11 21:20 060 19 5.4 4.0
2016-Feb-11 20:50 070 18 5.4 5.0
2016-Feb-11 20:20 060 19 5.4 5.0 Showers in the vicinity.
2016-Feb-11 19:50 060 18 5.4 5.0 Showers in the vicinity.
2016-Feb-11 19:20 060 17 5.4 5.0 Showers in the vicinity.
2016-Feb-11 18:50 060 20 5.4 5.0 Showers in the vicinity.
2016-Feb-11 18:20 060 16 5.4 5.0 Showers in the vicinity.
2016-Feb-11 17:50 060 18 5.4 4.0 Light rain showers.
2016-Feb-11 17:20 050 16 5.4 5.0 Showers in the vicinity.
2016-Feb-11 16:50 050 17 5.4 5.0 Light rain showers.
2016-Feb-11 16:20 060 18 5.4 5.0 Showers in the vicinity.
2016-Feb-11 15:50 060 16 5.4 5.0
2016-Feb-11 15:20 060 17 5.4 6.0
2016-Feb-11 14:50 060 18 5.4 5.0 Showers in the vicinity.
2016-Feb-11 14:20 060 15 5.4 7.0 Showers in the vicinity.
2016-Feb-11 13:50 060 14 5.4 5.0
2016-Feb-11 13:20 070 15 5.4 7.0
2016-Feb-11 12:50 070 13 5.4 6.0
2016-Feb-11 12:20 090 12 5.4 6.0
2016-Feb-11 11:50 060 17 5.4 6.0 Showers in the vicinity.
2016-Feb-11 11:20 070 15 5.4 6.0 Showers in the vicinity.
2016-Feb-11 10:50 060 14 5.4 6.0 Showers in the vicinity.
2016-Feb-11 10:20 080 9 5.4 4.0 Light rain showers.
2016-Feb-11 09:50 060 15 5.4 6.0
2016-Feb-11 09:20 060 16 5.4 6.0
2016-Feb-11 08:50 060 15 5.4 5.0
2016-Feb-11 08:20 060 14 5.4 5.0
2016-Feb-11 07:50 060 16 5.4 5.0 Showers in the vicinity.
2016-Feb-11 07:20 060 12 5.4 4.0 Showers in the vicinity.
2016-Feb-11 06:50 060 16 5.4 5.0 Showers in the vicinity.
2016-Feb-11 06:20 050 16 5.4 5.0 Light rain showers.
2016-Feb-11 05:50 040 16 5.4 5.0
2016-Feb-11 05:20 060 17 5.4 5.0
2016-Feb-11 04:50 050 18 5.4 6.0
2016-Feb-11 04:20 050 16 5.4 6.0
2016-Feb-11 03:50 060 17 5.4 5.0
2016-Feb-11 03:20 050 16 5.4 5.0
2016-Feb-11 02:50 060 18 5.4 5.0
2016-Feb-11 02:20 050 20 5.4 6.0
2016-Feb-11 01:50 040 20 5.4 6.0
2016-Feb-11 01:20 050 22 5.4 6.0
2016-Feb-11 00:50 050 19 5.4 6.0
2016-Feb-11 00:20 050 20 5.4 6.0
2016-Feb-10 23:50 050 20 5.4 6.0
2016-Feb-10 23:20 050 20 5.4 6.0
2016-Feb-10 22:50 050 20 5.4 6.0
2016-Feb-10 22:20 050 20 2.1 6.0 Light rain.
2016-Feb-10 21:50 050 22 5.4 6.0
2016-Feb-10 21:20 050 18 5.4 6.0
2016-Feb-10 20:50 060 18 5.4 6.0
2016-Feb-10 20:20 050 17 5.4 6.0
2016-Feb-10 19:50 360 6 5.4 6.0 Drizzle.
2016-Feb-10 19:20 300 7 5.4 5.0 Light rain showers.
2016-Feb-10 18:50 310 9 5.4 5.0 Light rain showers.
2016-Feb-10 18:20 300 8 5.4 5.0 Showers in the vicinity.
2016-Feb-10 17:50 300 10 5.4 5.0 Showers in the vicinity.
2016-Feb-10 17:20 300 11 5.4 5.0 Showers in the vicinity.
2016-Feb-10 16:50 310 13 5.4 5.0 Showers in the vicinity.
2016-Feb-10 16:20 290 13 5.4 5.0
2016-Feb-10 15:50 300 10 5.4 6.0
2016-Feb-10 15:20 300 12 5.4 6.0
2016-Feb-10 14:50 300 13 5.4 5.0 Showers in the vicinity.
2016-Feb-10 14:20 290 15 5.4 6.0 Showers in the vicinity.
2016-Feb-10 13:50 290 14 5.4 5.0 Showers in the vicinity.
2016-Feb-10 13:20 300 12 5.4 6.0 Showers in the vicinity.
2016-Feb-10 12:50 300 15 gusting 27 5.4 6.0 Showers in the vicinity.
2016-Feb-10 12:20 290 13 5.4 5.0 Light rain showers.
2016-Feb-10 11:50 310 18 5.4 5.0 Showers in the vicinity.
2016-Feb-10 11:20 300 14 5.4 6.0 Showers in the vicinity.
2016-Feb-10 10:50 310 14 5.4 6.0
2016-Feb-10 10:20 300 13 5.4 5.0
2016-Feb-10 09:50 300 12 5.4 5.0
2016-Feb-10 09:20 300 13 5.4 4.0 Showers in the vicinity.
2016-Feb-10 08:50 310 10 5.4 4.0
2016-Feb-10 08:20 310 14 5.4 4.0 Light rain showers.
2016-Feb-10 07:50 300 11 5.4 4.0
2016-Feb-10 07:20 300 11 5.4 4.0